createdAt,value
2018-11-21T00:00:41.265Z,-79
2018-11-21T00:01:41.031Z,-78
2018-11-21T00:02:41.097Z,-79
2018-11-21T00:03:41.301Z,-79
2018-11-21T00:04:40.965Z,-79
2018-11-21T00:05:40.961Z,-79
2018-11-21T00:06:40.920Z,-78
2018-11-21T00:07:41.028Z,-79
2018-11-21T00:08:41.256Z,-78
2018-11-21T00:09:40.972Z,-79
2018-11-21T00:10:40.907Z,-77
2018-11-21T00:11:40.971Z,-79
2018-11-21T00:12:40.918Z,-79
2018-11-21T00:13:40.967Z,-79
2018-11-21T00:14:41.005Z,-79
2018-11-21T00:15:41.079Z,-79
2018-11-21T00:16:41.107Z,-79
2018-11-21T00:17:41.044Z,-79
2018-11-21T00:18:40.915Z,-79
2018-11-21T00:19:41.113Z,-79
2018-11-21T00:20:41.353Z,-79
2018-11-21T00:21:41.194Z,-79
2018-11-21T00:22:41.301Z,-79
2018-11-21T00:23:41.209Z,-79
2018-11-21T00:24:40.929Z,-79
2018-11-21T00:25:41.242Z,-79
2018-11-21T00:26:41.393Z,-79
2018-11-21T00:27:40.984Z,-79
2018-11-21T00:28:40.962Z,-79
2018-11-21T00:29:41.002Z,-78
2018-11-21T00:30:41.039Z,-78
2018-11-21T00:31:41.215Z,-78
2018-11-21T00:32:41.235Z,-79
2018-11-21T00:33:40.935Z,-79
2018-11-21T00:34:40.967Z,-79
2018-11-21T00:35:40.949Z,-79
2018-11-21T00:36:41.267Z,-79
2018-11-21T00:37:40.969Z,-79
2018-11-21T00:38:40.903Z,-77
2018-11-21T00:39:41.114Z,-79
2018-11-21T00:40:41.244Z,-78
2018-11-21T00:41:40.990Z,-78
2018-11-21T00:42:46.796Z,-78
2018-11-21T00:43:40.975Z,-78
2018-11-21T00:44:41.052Z,-78
2018-11-21T00:45:40.920Z,-78
2018-11-21T00:46:41.200Z,-78
2018-11-21T00:47:41.091Z,-78
2018-11-21T00:48:40.942Z,-79
2018-11-21T00:49:41.120Z,-78
2018-11-21T00:50:41.041Z,-76
2018-11-21T00:51:41.029Z,-77
2018-11-21T00:52:40.937Z,-78
2018-11-21T00:53:40.874Z,-77
2018-11-21T00:54:41.030Z,-78
2018-11-21T00:55:40.874Z,-77
2018-11-21T00:56:41.092Z,-77
2018-11-21T00:57:41.062Z,-78
2018-11-21T00:58:41.012Z,-78
2018-11-21T00:59:41.094Z,-79
2018-11-21T01:00:40.957Z,-77
2018-11-21T01:01:41.022Z,-78
2018-11-21T01:02:40.904Z,-78
2018-11-21T01:03:40.928Z,-79
2018-11-21T01:04:40.963Z,-79
2018-11-21T01:05:41.028Z,-78
2018-11-21T01:06:41.020Z,-78
2018-11-21T01:07:40.927Z,-78
2018-11-21T01:08:40.977Z,-79
2018-11-21T01:09:40.940Z,-78
2018-11-21T01:10:40.892Z,-79
2018-11-21T01:11:40.856Z,-79
2018-11-21T01:12:41.213Z,-75
2018-11-21T01:13:40.904Z,-79
2018-11-21T01:14:40.938Z,-79
2018-11-21T01:15:41.007Z,-79
2018-11-21T01:16:41.722Z,-79
2018-11-21T01:17:40.853Z,-79
2018-11-21T01:18:40.888Z,-78
2018-11-21T01:19:40.905Z,-78
2018-11-21T01:20:41.191Z,-74
2018-11-21T01:21:40.950Z,-77
2018-11-21T01:22:41.156Z,-78
2018-11-21T01:23:40.987Z,-77
2018-11-21T01:24:40.966Z,-78
2018-11-21T01:25:41.022Z,-77
2018-11-21T01:26:41.024Z,-78
2018-11-21T01:27:40.940Z,-78
2018-11-21T01:28:40.893Z,-78
2018-11-21T01:29:40.822Z,-77
2018-11-21T01:30:40.823Z,-78
2018-11-21T01:31:40.911Z,-78
2018-11-21T01:32:40.903Z,-78
2018-11-21T01:33:40.842Z,-78
2018-11-21T01:34:40.857Z,-78
2018-11-21T01:35:40.821Z,-79
2018-11-21T01:36:41.121Z,-79
2018-11-21T01:37:40.864Z,-77
2018-11-21T01:38:40.840Z,-78
2018-11-21T01:39:40.880Z,-79
2018-11-21T01:40:40.959Z,-78
2018-11-21T01:41:40.861Z,-77
2018-11-21T01:42:41.954Z,-77
2018-11-21T01:43:40.878Z,-77
2018-11-21T01:44:40.953Z,-76
2018-11-21T01:45:40.941Z,-76
2018-11-21T01:46:41.119Z,-79
2018-11-21T01:47:40.888Z,-78
2018-11-21T01:48:40.790Z,-79
2018-11-21T01:49:40.837Z,-79
2018-11-21T01:50:40.873Z,-79
2018-11-21T01:51:40.830Z,-79
2018-11-21T01:52:40.985Z,-77
2018-11-21T01:53:40.859Z,-78
2018-11-21T01:54:40.804Z,-78
2018-11-21T01:55:41.023Z,-77
2018-11-21T01:56:40.885Z,-78
2018-11-21T01:57:40.968Z,-77
2018-11-21T01:58:40.771Z,-77
2018-11-21T01:59:41.028Z,-77
2018-11-21T02:00:40.912Z,-78
2018-11-21T02:01:41.628Z,-75
2018-11-21T02:02:40.944Z,-79
2018-11-21T02:03:41.071Z,-79
2018-11-21T02:04:41.304Z,-79
2018-11-21T02:05:40.965Z,-79
2018-11-21T02:06:40.818Z,-79
2018-11-21T02:07:41.063Z,-78
2018-11-21T02:08:41.009Z,-79
2018-11-21T02:09:40.810Z,-76
2018-11-21T02:10:40.920Z,-75
2018-11-21T02:11:41.076Z,-79
2018-11-21T02:12:40.812Z,-79
2018-11-21T02:13:40.856Z,-79
2018-11-21T02:14:41.626Z,-78
2018-11-21T02:15:40.955Z,-79
2018-11-21T02:16:40.975Z,-79
2018-11-21T02:17:40.898Z,-79
2018-11-21T02:18:40.875Z,-78
2018-11-21T02:19:40.893Z,-77
2018-11-21T02:20:41.020Z,-76
2018-11-21T02:21:41.200Z,-79
2018-11-21T02:22:40.802Z,-78
2018-11-21T02:23:40.834Z,-78
2018-11-21T02:24:41.205Z,-78
2018-11-21T02:25:40.755Z,-79
2018-11-21T02:26:41.135Z,-76
2018-11-21T02:27:40.814Z,-78
2018-11-21T02:28:40.827Z,-78
2018-11-21T02:29:40.951Z,-77
2018-11-21T02:30:40.878Z,-77
2018-11-21T02:31:40.869Z,-77
2018-11-21T02:32:41.009Z,-76
2018-11-21T02:33:40.876Z,-78
2018-11-21T02:34:40.764Z,-76
2018-11-21T02:35:40.785Z,-78
2018-11-21T02:36:40.822Z,-79
2018-11-21T02:37:40.919Z,-79
2018-11-21T02:38:40.895Z,-78
2018-11-21T02:39:40.797Z,-78
2018-11-21T02:40:41.011Z,-79
2018-11-21T02:41:41.033Z,-79
2018-11-21T02:42:40.831Z,-78
2018-11-21T02:43:40.952Z,-77
2018-11-21T02:44:40.904Z,-77
2018-11-21T02:45:40.926Z,-78
2018-11-21T02:46:40.817Z,-77
2018-11-21T02:47:40.846Z,-78
2018-11-21T02:48:40.764Z,-79
2018-11-21T02:49:40.820Z,-78
2018-11-21T02:50:40.744Z,-78
2018-11-21T02:51:41.239Z,-79
2018-11-21T02:52:40.780Z,-79
2018-11-21T02:53:41.108Z,-79
2018-11-21T02:54:41.008Z,-78
2018-11-21T02:55:40.812Z,-78
2018-11-21T02:56:40.737Z,-79
2018-11-21T02:57:40.718Z,-78
2018-11-21T02:58:40.788Z,-79
2018-11-21T02:59:40.721Z,-79
2018-11-21T03:00:40.932Z,-78
2018-11-21T03:01:40.822Z,-79
2018-11-21T03:02:40.847Z,-79
2018-11-21T03:03:40.899Z,-79
2018-11-21T03:04:40.803Z,-79
2018-11-21T03:05:41.016Z,-79
2018-11-21T03:06:40.789Z,-79
2018-11-21T03:07:40.822Z,-78
2018-11-21T03:08:40.764Z,-79
2018-11-21T03:09:40.687Z,-79
2018-11-21T03:10:40.779Z,-78
2018-11-21T03:11:40.740Z,-78
2018-11-21T03:12:40.733Z,-79
2018-11-21T03:13:40.782Z,-79
2018-11-21T03:14:40.672Z,-79
2018-11-21T03:15:40.726Z,-79
2018-11-21T03:16:41.057Z,-79
2018-11-21T03:17:40.726Z,-79
2018-11-21T03:18:40.715Z,-79
2018-11-21T03:19:40.742Z,-79
2018-11-21T03:20:40.765Z,-79
2018-11-21T03:21:40.791Z,-79
2018-11-21T03:22:41.186Z,-79
2018-11-21T03:23:40.680Z,-79
2018-11-21T03:24:40.723Z,-79
2018-11-21T03:25:40.775Z,-79
2018-11-21T03:26:40.685Z,-79
2018-11-21T03:27:40.695Z,-79
2018-11-21T03:28:40.814Z,-79
2018-11-21T03:29:40.736Z,-79
2018-11-21T03:30:40.798Z,-79
2018-11-21T03:31:40.746Z,-78
2018-11-21T03:32:40.826Z,-79
2018-11-21T03:33:40.702Z,-79
2018-11-21T03:34:40.674Z,-79
2018-11-21T03:35:40.783Z,-79
2018-11-21T03:36:40.691Z,-78
2018-11-21T03:37:40.799Z,-79
2018-11-21T03:38:40.642Z,-79
2018-11-21T03:39:41.139Z,-78
2018-11-21T03:40:40.935Z,-79
2018-11-21T03:41:40.653Z,-79
2018-11-21T03:42:41.075Z,-79
2018-11-21T03:43:40.901Z,-79
2018-11-21T03:44:40.735Z,-78
2018-11-21T03:45:40.814Z,-78
2018-11-21T03:46:40.675Z,-78
2018-11-21T03:47:40.983Z,-78
2018-11-21T03:48:40.765Z,-79
2018-11-21T03:49:40.897Z,-79
2018-11-21T03:50:40.661Z,-79
2018-11-21T03:51:40.764Z,-78
2018-11-21T03:52:40.671Z,-78
2018-11-21T03:53:40.653Z,-79
2018-11-21T03:54:40.743Z,-78
2018-11-21T03:55:40.893Z,-78
2018-11-21T03:56:41.041Z,-79
2018-11-21T03:57:40.775Z,-79
2018-11-21T03:58:40.647Z,-79
2018-11-21T03:59:40.599Z,-78
2018-11-21T04:00:40.729Z,-79
2018-11-21T04:01:40.651Z,-78
2018-11-21T04:02:40.707Z,-79
2018-11-21T04:03:40.622Z,-78
2018-11-21T04:04:40.757Z,-79
2018-11-21T04:05:40.761Z,-78
2018-11-21T04:06:40.875Z,-79
2018-11-21T04:07:40.934Z,-78
2018-11-21T04:08:43.155Z,-78
2018-11-21T04:09:40.826Z,-79
2018-11-21T04:10:40.697Z,-79
2018-11-21T04:11:40.767Z,-79
2018-11-21T04:12:40.856Z,-79
2018-11-21T04:13:41.005Z,-79
2018-11-21T04:14:40.620Z,-78
2018-11-21T04:15:40.663Z,-79
2018-11-21T04:16:40.710Z,-78
2018-11-21T04:17:40.629Z,-79
2018-11-21T04:18:40.768Z,-79
2018-11-21T04:19:40.813Z,-78
2018-11-21T04:20:40.677Z,-78
2018-11-21T04:21:40.650Z,-79
2018-11-21T04:22:40.666Z,-78
2018-11-21T04:23:40.758Z,-79
2018-11-21T04:24:40.695Z,-78
2018-11-21T04:25:40.677Z,-78
2018-11-21T04:26:40.650Z,-78
2018-11-21T04:27:40.879Z,-79
2018-11-21T04:28:40.737Z,-78
2018-11-21T04:29:40.626Z,-79
2018-11-21T04:30:40.658Z,-79
2018-11-21T04:31:41.008Z,-79
2018-11-21T04:32:40.670Z,-79
2018-11-21T04:33:40.784Z,-79
2018-11-21T04:34:40.781Z,-78
2018-11-21T04:35:40.730Z,-79
2018-11-21T04:36:40.873Z,-79
2018-11-21T04:37:40.799Z,-79
2018-11-21T04:38:40.648Z,-79
2018-11-21T04:39:40.952Z,-79
2018-11-21T04:40:40.788Z,-79
2018-11-21T04:41:40.724Z,-79
2018-11-21T04:42:40.838Z,-79
2018-11-21T04:43:40.614Z,-79
2018-11-21T04:44:40.681Z,-79
2018-11-21T04:45:41.010Z,-79
2018-11-21T04:46:40.578Z,-79
2018-11-21T04:47:40.594Z,-78
2018-11-21T04:48:40.664Z,-79
2018-11-21T04:49:40.572Z,-78
2018-11-21T04:50:40.650Z,-79
2018-11-21T04:51:40.611Z,-78
2018-11-21T04:52:40.630Z,-79
2018-11-21T04:53:40.657Z,-79
2018-11-21T04:54:40.631Z,-79
2018-11-21T04:55:40.694Z,-79
2018-11-21T04:56:40.577Z,-79
2018-11-21T04:57:40.607Z,-78
2018-11-21T04:58:40.588Z,-79
2018-11-21T04:59:40.543Z,-79
2018-11-21T05:00:40.773Z,-79
2018-11-21T05:01:40.554Z,-79
2018-11-21T05:02:40.558Z,-79
2018-11-21T05:03:40.578Z,-79
2018-11-21T05:04:40.558Z,-79
2018-11-21T05:05:40.944Z,-78
2018-11-21T05:06:40.588Z,-79
2018-11-21T05:07:40.533Z,-79
2018-11-21T05:08:40.621Z,-79
2018-11-21T05:09:40.546Z,-78
2018-11-21T05:10:41.413Z,-79
2018-11-21T05:11:40.646Z,-79
2018-11-21T05:12:40.788Z,-79
2018-11-21T05:13:40.557Z,-79
2018-11-21T05:14:40.640Z,-78
2018-11-21T05:15:40.570Z,-79
2018-11-21T05:16:40.509Z,-79
2018-11-21T05:17:41.396Z,-78
2018-11-21T05:18:40.668Z,-79
2018-11-21T05:19:40.554Z,-78
2018-11-21T05:20:40.855Z,-78
2018-11-21T05:21:40.732Z,-78
2018-11-21T05:22:40.788Z,-79
2018-11-21T05:23:40.555Z,-79
2018-11-21T05:24:40.629Z,-78
2018-11-21T05:25:40.604Z,-78
2018-11-21T05:26:40.616Z,-78
2018-11-21T05:27:40.545Z,-78
2018-11-21T05:28:40.741Z,-78
2018-11-21T05:29:40.757Z,-78
2018-11-21T05:30:40.724Z,-78
2018-11-21T05:31:40.764Z,-78
2018-11-21T05:32:40.872Z,-78
2018-11-21T05:33:40.741Z,-78
2018-11-21T05:34:40.622Z,-78
2018-11-21T05:35:40.581Z,-78
2018-11-21T05:36:40.675Z,-78
2018-11-21T05:37:40.652Z,-78
2018-11-21T05:38:40.600Z,-78
2018-11-21T05:39:40.607Z,-79
2018-11-21T05:40:40.685Z,-78
2018-11-21T05:41:40.535Z,-78
2018-11-21T05:42:40.575Z,-79
2018-11-21T05:43:40.552Z,-79
2018-11-21T05:44:40.515Z,-78
2018-11-21T05:45:40.647Z,-79
2018-11-21T05:46:40.633Z,-79
2018-11-21T05:47:40.720Z,-78
2018-11-21T05:48:40.570Z,-78
2018-11-21T05:49:40.484Z,-79
2018-11-21T05:50:40.824Z,-79
2018-11-21T05:51:40.644Z,-78
2018-11-21T05:52:41.764Z,-78
2018-11-21T05:53:40.708Z,-79
2018-11-21T05:54:40.654Z,-78
2018-11-21T05:55:40.657Z,-79
2018-11-21T05:56:40.526Z,-79
2018-11-21T05:57:40.860Z,-78
2018-11-21T05:58:40.536Z,-79
2018-11-21T05:59:40.612Z,-79
2018-11-21T06:00:40.564Z,-79
2018-11-21T06:01:40.557Z,-79
2018-11-21T06:02:40.684Z,-78
2018-11-21T06:03:40.523Z,-77
2018-11-21T06:04:40.547Z,-77
2018-11-21T06:05:40.502Z,-77
2018-11-21T06:06:40.412Z,-77
2018-11-21T06:07:40.620Z,-77
2018-11-21T06:08:40.459Z,-77
2018-11-21T06:09:40.487Z,-76
2018-11-21T06:10:40.545Z,-77
2018-11-21T06:11:40.781Z,-77
2018-11-21T06:12:40.481Z,-76
2018-11-21T06:13:40.439Z,-77
2018-11-21T06:14:40.494Z,-77
2018-11-21T06:15:40.414Z,-77
2018-11-21T06:16:40.680Z,-77
2018-11-21T06:17:40.480Z,-77
2018-11-21T06:18:40.728Z,-77
2018-11-21T06:19:40.480Z,-77
2018-11-21T06:20:40.758Z,-77
2018-11-21T06:21:40.528Z,-77
2018-11-21T06:22:40.410Z,-77
2018-11-21T06:23:40.690Z,-77
2018-11-21T06:24:40.463Z,-77
2018-11-21T06:25:40.693Z,-77
2018-11-21T06:26:40.433Z,-77
2018-11-21T06:27:40.412Z,-77
2018-11-21T06:28:40.993Z,-77
2018-11-21T06:29:40.412Z,-77
2018-11-21T06:30:40.419Z,-77
2018-11-21T06:31:40.467Z,-77
2018-11-21T06:32:40.451Z,-77
2018-11-21T06:33:40.475Z,-77
2018-11-21T06:34:40.415Z,-78
2018-11-21T06:35:40.464Z,-77
2018-11-21T06:36:40.786Z,-77
2018-11-21T06:37:40.491Z,-77
2018-11-21T06:38:40.407Z,-77
2018-11-21T06:39:40.860Z,-77
2018-11-21T06:40:40.428Z,-77
2018-11-21T06:41:40.447Z,-77
2018-11-21T06:42:40.403Z,-77
2018-11-21T06:43:40.405Z,-77
2018-11-21T06:44:40.653Z,-77
2018-11-21T06:45:40.631Z,-77
2018-11-21T06:46:40.487Z,-78
2018-11-21T06:47:40.432Z,-78
2018-11-21T06:48:40.610Z,-78
2018-11-21T06:49:40.756Z,-78
2018-11-21T06:50:40.553Z,-78
2018-11-21T06:51:41.003Z,-78
2018-11-21T06:52:40.366Z,-78
2018-11-21T06:53:40.421Z,-78
2018-11-21T06:54:40.467Z,-78
2018-11-21T06:55:40.522Z,-77
2018-11-21T06:56:40.643Z,-78
2018-11-21T06:57:40.728Z,-78
2018-11-21T06:58:40.569Z,-77
2018-11-21T06:59:40.645Z,-77
2018-11-21T07:00:40.427Z,-78
2018-11-21T07:01:40.491Z,-78
2018-11-21T07:02:40.511Z,-77
2018-11-21T07:03:40.773Z,-77
2018-11-21T07:04:40.901Z,-77
2018-11-21T07:05:40.568Z,-77
2018-11-21T07:06:40.684Z,-77
2018-11-21T07:07:40.587Z,-77
2018-11-21T07:08:40.417Z,-78
2018-11-21T07:09:40.716Z,-77
2018-11-21T07:10:40.471Z,-77
2018-11-21T07:11:40.323Z,-75
2018-11-21T07:12:40.603Z,-78
2018-11-21T07:13:40.522Z,-77
2018-11-21T07:14:40.646Z,-78
2018-11-21T07:15:40.403Z,-78
2018-11-21T07:16:40.430Z,-77
2018-11-21T07:17:40.481Z,-77
2018-11-21T07:18:40.584Z,-77
2018-11-21T07:19:40.397Z,-77
2018-11-21T07:20:40.428Z,-77
2018-11-21T07:21:40.675Z,-77
2018-11-21T07:22:40.374Z,-77
2018-11-21T07:23:40.419Z,-77
2018-11-21T07:24:40.430Z,-78
2018-11-21T07:25:40.574Z,-78
2018-11-21T07:26:40.845Z,-78
2018-11-21T07:27:40.655Z,-78
2018-11-21T07:28:40.438Z,-77
2018-11-21T07:29:40.576Z,-77
2018-11-21T07:30:40.595Z,-77
2018-11-21T07:31:40.854Z,-77
2018-11-21T07:32:40.831Z,-77
2018-11-21T07:33:46.569Z,-77
2018-11-21T07:34:40.388Z,-77
2018-11-21T07:35:40.391Z,-77
2018-11-21T07:36:40.449Z,-77
2018-11-21T07:37:40.432Z,-77
2018-11-21T07:38:40.382Z,-77
2018-11-21T07:39:40.440Z,-77
2018-11-21T07:40:40.629Z,-77
2018-11-21T07:41:40.392Z,-77
2018-11-21T07:42:40.648Z,-78
2018-11-21T07:43:41.246Z,-78
2018-11-21T07:44:40.635Z,-77
2018-11-21T07:45:40.584Z,-77
2018-11-21T07:46:40.540Z,-77
2018-11-21T07:47:40.432Z,-77
2018-11-21T07:48:40.372Z,-77
2018-11-21T07:49:41.214Z,-77
2018-11-21T07:50:40.588Z,-78
2018-11-21T07:51:40.426Z,-78
2018-11-21T07:52:40.379Z,-78
2018-11-21T07:53:40.357Z,-78
2018-11-21T07:54:40.364Z,-77
2018-11-21T07:55:40.679Z,-77
2018-11-21T07:56:40.358Z,-77
2018-11-21T07:57:40.521Z,-77
2018-11-21T07:58:40.347Z,-77
2018-11-21T07:59:40.355Z,-76
2018-11-21T08:00:40.343Z,-77
2018-11-21T08:01:40.580Z,-77
2018-11-21T08:02:40.419Z,-77
2018-11-21T08:03:40.560Z,-77
2018-11-21T08:04:40.327Z,-77
2018-11-21T08:05:44.822Z,-76
2018-11-21T08:06:40.513Z,-76
2018-11-21T08:07:40.591Z,-76
2018-11-21T08:08:40.302Z,-76
2018-11-21T08:09:40.363Z,-76
2018-11-21T08:10:40.418Z,-76
2018-11-21T08:11:40.426Z,-77
2018-11-21T08:12:40.329Z,-76
2018-11-21T08:13:40.340Z,-76
2018-11-21T08:14:40.391Z,-76
2018-11-21T08:15:40.284Z,-77
2018-11-21T08:16:40.330Z,-76
2018-11-21T08:17:40.669Z,-77
2018-11-21T08:18:40.402Z,-77
2018-11-21T08:19:40.374Z,-76
2018-11-21T08:20:40.681Z,-77
2018-11-21T08:21:40.326Z,-77
2018-11-21T08:22:40.525Z,-77
2018-11-21T08:23:40.335Z,-77
2018-11-21T08:24:40.764Z,-77
2018-11-21T08:25:40.295Z,-77
2018-11-21T08:26:40.519Z,-77
2018-11-21T08:27:40.584Z,-77
2018-11-21T08:28:40.541Z,-77
2018-11-21T08:29:40.947Z,-77
2018-11-21T08:30:40.581Z,-77
2018-11-21T08:31:40.503Z,-76
2018-11-21T08:32:40.400Z,-77
2018-11-21T08:33:40.371Z,-77
2018-11-21T08:34:40.375Z,-76
2018-11-21T08:35:40.517Z,-77
2018-11-21T08:36:40.404Z,-77
2018-11-21T08:37:40.464Z,-77
2018-11-21T08:38:40.495Z,-76
2018-11-21T08:39:40.637Z,-73
2018-11-21T08:40:40.282Z,-77
2018-11-21T08:41:40.732Z,-77
2018-11-21T08:42:40.263Z,-77
2018-11-21T08:43:40.611Z,-77
2018-11-21T08:44:40.577Z,-77
2018-11-21T08:45:40.374Z,-76
2018-11-21T08:46:40.338Z,-76
2018-11-21T08:47:40.472Z,-76
2018-11-21T08:48:40.283Z,-76
2018-11-21T08:49:40.224Z,-76
2018-11-21T08:50:40.236Z,-76
2018-11-21T08:51:40.476Z,-76
2018-11-21T08:52:40.468Z,-77
2018-11-21T08:53:40.288Z,-77
2018-11-21T08:54:40.399Z,-77
2018-11-21T08:55:40.490Z,-77
2018-11-21T08:56:40.293Z,-77
2018-11-21T08:57:40.655Z,-77
2018-11-21T08:58:40.481Z,-77
2018-11-21T08:59:40.448Z,-77
2018-11-21T09:00:40.282Z,-77
2018-11-21T09:01:40.666Z,-76
2018-11-21T09:02:40.249Z,-76
2018-11-21T09:03:40.198Z,-76
2018-11-21T09:04:40.276Z,-77
2018-11-21T09:05:40.320Z,-77
2018-11-21T09:06:40.687Z,-77
2018-11-21T09:07:40.198Z,-77
2018-11-21T09:08:40.362Z,-78
2018-11-21T09:09:40.284Z,-77
2018-11-21T09:10:40.433Z,-77
2018-11-21T09:11:40.327Z,-77
2018-11-21T09:12:40.287Z,-77
2018-11-21T09:13:40.289Z,-77
2018-11-21T09:14:40.548Z,-77
2018-11-21T09:15:40.554Z,-77
2018-11-21T09:16:41.062Z,-77
2018-11-21T09:17:40.250Z,-77
2018-11-21T09:18:40.361Z,-77
2018-11-21T09:19:40.269Z,-77
2018-11-21T09:20:40.308Z,-77
2018-11-21T09:21:40.527Z,-77
2018-11-21T09:22:40.188Z,-77
2018-11-21T09:23:40.359Z,-77
2018-11-21T09:24:40.285Z,-77
2018-11-21T09:25:40.342Z,-77
2018-11-21T09:26:40.466Z,-77
2018-11-21T09:27:40.177Z,-77
2018-11-21T09:28:40.269Z,-77
2018-11-21T09:29:40.284Z,-77
2018-11-21T09:30:40.397Z,-77
2018-11-21T09:31:40.170Z,-77
2018-11-21T09:32:40.231Z,-77
2018-11-21T09:33:40.567Z,-77
2018-11-21T09:34:40.279Z,-77
2018-11-21T09:35:40.203Z,-77
2018-11-21T09:36:40.342Z,-77
2018-11-21T09:37:40.241Z,-78
2018-11-21T09:38:40.323Z,-77
2018-11-21T09:39:40.254Z,-77
2018-11-21T09:40:40.166Z,-77
2018-11-21T09:41:40.231Z,-77
2018-11-21T09:42:40.162Z,-77
2018-11-21T09:43:40.189Z,-77
2018-11-21T09:44:40.153Z,-77
2018-11-21T09:45:40.220Z,-77
2018-11-21T09:46:40.152Z,-77
2018-11-21T09:47:40.174Z,-77
2018-11-21T09:48:40.292Z,-77
2018-11-21T09:49:40.250Z,-77
2018-11-21T09:50:40.229Z,-77
2018-11-21T09:51:40.138Z,-77
2018-11-21T09:52:40.879Z,-77
2018-11-21T09:53:40.177Z,-77
2018-11-21T09:54:40.165Z,-77
2018-11-21T09:55:40.902Z,-77
2018-11-21T09:56:40.361Z,-77
2018-11-21T09:57:40.249Z,-77
2018-11-21T09:58:40.528Z,-77
2018-11-21T09:59:40.364Z,-77
2018-11-21T10:00:40.398Z,-77
2018-11-21T10:01:40.260Z,-77
2018-11-21T10:02:40.585Z,-77
2018-11-21T10:03:40.398Z,-77
2018-11-21T10:04:40.233Z,-77
2018-11-21T10:05:40.271Z,-77
2018-11-21T10:06:40.111Z,-77
2018-11-21T10:07:40.401Z,-77
2018-11-21T10:08:40.321Z,-77
2018-11-21T10:09:40.187Z,-77
2018-11-21T10:10:40.216Z,-77
2018-11-21T10:11:40.207Z,-77
2018-11-21T10:12:40.613Z,-77
2018-11-21T10:13:40.293Z,-77
2018-11-21T10:14:40.279Z,-77
2018-11-21T10:15:40.451Z,-77
2018-11-21T10:16:40.204Z,-77
2018-11-21T10:17:40.229Z,-78
2018-11-21T10:18:40.350Z,-77
2018-11-21T10:19:40.189Z,-77
2018-11-21T10:20:40.335Z,-74
2018-11-21T10:21:40.123Z,-76
2018-11-21T10:22:40.206Z,-77
2018-11-21T10:23:40.519Z,-75
2018-11-21T10:24:40.110Z,-76
2018-11-21T10:25:40.220Z,-76
2018-11-21T10:26:40.471Z,-73
2018-11-21T10:27:40.737Z,-75
2018-11-21T10:28:40.321Z,-74
2018-11-21T10:29:40.263Z,-75
2018-11-21T10:30:40.302Z,-75
2018-11-21T10:31:40.276Z,-75
2018-11-21T10:32:40.218Z,-76
2018-11-21T10:33:40.117Z,-76
2018-11-21T10:34:40.363Z,-75
2018-11-21T10:35:40.153Z,-77
2018-11-21T10:36:40.427Z,-74
2018-11-21T10:37:40.199Z,-76
2018-11-21T10:38:40.412Z,-75
2018-11-21T10:39:40.198Z,-75
2018-11-21T10:40:40.098Z,-76
2018-11-21T10:41:40.089Z,-76
2018-11-21T10:42:40.130Z,-76
2018-11-21T10:43:40.927Z,-71
2018-11-21T10:44:40.065Z,-75
2018-11-21T10:45:40.339Z,-77
2018-11-21T10:46:40.334Z,-77
2018-11-21T10:47:40.255Z,-76
2018-11-21T10:48:40.187Z,-75
2018-11-21T10:49:40.178Z,-75
2018-11-21T10:50:40.332Z,-74
2018-11-21T10:51:40.217Z,-74
2018-11-21T10:52:40.288Z,-75
2018-11-21T10:53:40.229Z,-75
2018-11-21T10:54:40.333Z,-75
2018-11-21T10:55:42.607Z,-75
2018-11-21T10:56:40.202Z,-75
2018-11-21T10:57:40.111Z,-76
2018-11-21T10:58:40.060Z,-76
2018-11-21T10:59:40.230Z,-77
2018-11-21T11:00:40.222Z,-74
2018-11-21T11:01:40.187Z,-75
2018-11-21T11:02:40.258Z,-74
2018-11-21T11:03:40.085Z,-76
2018-11-21T11:04:40.051Z,-77
2018-11-21T11:05:40.242Z,-77
2018-11-21T11:06:40.427Z,-73
2018-11-21T11:07:40.210Z,-77
2018-11-21T11:08:40.206Z,-75
2018-11-21T11:09:40.024Z,-76
2018-11-21T11:10:40.089Z,-77
2018-11-21T11:11:40.051Z,-77
2018-11-21T11:12:40.335Z,-75
2018-11-21T11:13:40.053Z,-76
2018-11-21T11:14:40.057Z,-77
2018-11-21T11:15:40.047Z,-77
2018-11-21T11:16:40.042Z,-76
2018-11-21T11:17:40.270Z,-74
2018-11-21T11:18:40.049Z,-77
2018-11-21T11:19:40.126Z,-76
2018-11-21T11:20:40.083Z,-76
2018-11-21T11:21:40.055Z,-76
2018-11-21T11:22:40.084Z,-77
2018-11-21T11:23:40.073Z,-76
2018-11-21T11:24:40.076Z,-76
2018-11-21T11:25:40.031Z,-77
2018-11-21T11:26:40.230Z,-75
2018-11-21T11:27:40.204Z,-76
2018-11-21T11:28:40.208Z,-76
2018-11-21T11:29:40.045Z,-77
2018-11-21T11:30:40.150Z,-77
2018-11-21T11:31:40.084Z,-77
2018-11-21T11:32:40.301Z,-75
2018-11-21T11:33:40.290Z,-76
2018-11-21T11:34:40.518Z,-74
2018-11-21T11:35:40.336Z,-75
2018-11-21T11:36:40.233Z,-77
2018-11-21T11:37:40.252Z,-75
2018-11-21T11:38:40.052Z,-76
2018-11-21T11:39:40.166Z,-76
2018-11-21T11:40:40.203Z,-77
2018-11-21T11:41:40.216Z,-75
2018-11-21T11:42:40.214Z,-76
2018-11-21T11:43:40.281Z,-74
2018-11-21T11:44:40.206Z,-76
2018-11-21T11:45:40.057Z,-76
2018-11-21T11:46:40.081Z,-76
2018-11-21T11:47:40.003Z,-77
2018-11-21T11:48:40.296Z,-75
2018-11-21T11:49:39.960Z,-77
2018-11-21T11:50:40.297Z,-77
2018-11-21T11:51:40.033Z,-78
2018-11-21T11:52:40.040Z,-77
2018-11-21T11:53:40.268Z,-77
2018-11-21T11:54:40.048Z,-78
2018-11-21T11:55:40.142Z,-78
2018-11-21T11:56:40.832Z,-78
2018-11-21T11:57:40.221Z,-78
2018-11-21T11:58:40.317Z,-78
2018-11-21T11:59:40.069Z,-78
2018-11-21T12:00:40.196Z,-78
2018-11-21T12:01:40.050Z,-78
2018-11-21T12:02:39.988Z,-77
2018-11-21T12:03:39.980Z,-77
2018-11-21T12:04:40.017Z,-78
2018-11-21T12:05:40.010Z,-77
2018-11-21T12:06:40.173Z,-77
2018-11-21T12:07:39.953Z,-78
2018-11-21T12:08:39.959Z,-77
2018-11-21T12:09:39.966Z,-77
2018-11-21T12:10:40.048Z,-76
2018-11-21T12:11:40.049Z,-77
2018-11-21T12:12:40.585Z,-76
2018-11-21T12:13:40.108Z,-76
2018-11-21T12:14:39.989Z,-77
2018-11-21T12:15:40.477Z,-74
2018-11-21T12:16:40.359Z,-75
2018-11-21T12:17:40.095Z,-75
2018-11-21T12:18:40.027Z,-77
2018-11-21T12:19:40.038Z,-77
2018-11-21T12:20:40.088Z,-76
2018-11-21T12:21:40.121Z,-75
2018-11-21T12:22:40.213Z,-76
2018-11-21T12:23:40.012Z,-76
2018-11-21T12:24:39.984Z,-77
2018-11-21T12:25:39.918Z,-76
2018-11-21T12:26:40.167Z,-75
2018-11-21T12:27:40.018Z,-77
2018-11-21T12:28:40.229Z,-74
2018-11-21T12:29:42.374Z,-76
2018-11-21T12:30:39.900Z,-76
2018-11-21T12:31:39.941Z,-77
2018-11-21T12:32:40.065Z,-76
2018-11-21T12:33:40.278Z,-74
2018-11-21T12:34:40.096Z,-75
2018-11-21T12:35:39.983Z,-77
2018-11-21T12:36:40.008Z,-76
2018-11-21T12:37:40.068Z,-76
2018-11-21T12:38:40.080Z,-76
2018-11-21T12:39:40.000Z,-76
2018-11-21T12:40:39.954Z,-77
2018-11-21T12:41:40.000Z,-76
2018-11-21T12:42:40.041Z,-76
2018-11-21T12:43:40.000Z,-77
2018-11-21T12:44:39.928Z,-77
2018-11-21T12:45:39.989Z,-76
2018-11-21T12:46:39.900Z,-76
2018-11-21T12:47:39.970Z,-77
2018-11-21T12:48:39.942Z,-77
2018-11-21T12:49:40.021Z,-76
2018-11-21T12:50:39.991Z,-76
2018-11-21T12:51:39.896Z,-76
2018-11-21T12:52:39.951Z,-76
2018-11-21T12:53:39.975Z,-76
2018-11-21T12:54:39.943Z,-76
2018-11-21T12:55:39.965Z,-76
2018-11-21T12:56:39.877Z,-77
2018-11-21T12:57:39.909Z,-77
2018-11-21T12:58:39.893Z,-76
2018-11-21T12:59:39.904Z,-77
2018-11-21T13:00:40.020Z,-77
2018-11-21T13:01:39.919Z,-76
2018-11-21T13:02:39.897Z,-76
2018-11-21T13:03:39.991Z,-76
2018-11-21T13:04:39.925Z,-76
2018-11-21T13:05:39.944Z,-76
2018-11-21T13:06:40.192Z,-74
2018-11-21T13:07:39.933Z,-76
2018-11-21T13:08:40.142Z,-75
2018-11-21T13:09:39.983Z,-76
2018-11-21T13:10:40.044Z,-76
2018-11-21T13:11:39.925Z,-75
2018-11-21T13:12:40.260Z,-74
2018-11-21T13:13:40.029Z,-76
2018-11-21T13:14:40.525Z,-74
2018-11-21T13:15:44.007Z,-74
2018-11-21T13:16:40.057Z,-76
2018-11-21T13:17:40.423Z,-73
2018-11-21T13:18:39.944Z,-77
2018-11-21T13:19:39.912Z,-77
2018-11-21T13:20:40.197Z,-74
2018-11-21T13:21:39.859Z,-77
2018-11-21T13:22:40.061Z,-75
2018-11-21T13:23:39.955Z,-77
2018-11-21T13:24:39.971Z,-77
2018-11-21T13:25:39.972Z,-76
2018-11-21T13:26:40.003Z,-77
2018-11-21T13:27:39.966Z,-77
2018-11-21T13:28:39.983Z,-76
2018-11-21T13:29:39.979Z,-77
2018-11-21T13:30:40.005Z,-76
2018-11-21T13:31:39.874Z,-77
2018-11-21T13:32:39.941Z,-76
2018-11-21T13:33:39.950Z,-76
2018-11-21T13:34:40.154Z,-75
2018-11-21T13:35:39.870Z,-77
2018-11-21T13:36:39.916Z,-77
2018-11-21T13:37:39.853Z,-77
2018-11-21T13:38:39.861Z,-77
2018-11-21T13:39:40.206Z,-76
2018-11-21T13:40:39.872Z,-78
2018-11-21T13:41:40.059Z,-78
2018-11-21T13:42:39.821Z,-78
2018-11-21T13:43:39.880Z,-78
2018-11-21T13:44:39.969Z,-78
2018-11-21T13:45:39.940Z,-78
2018-11-21T13:46:39.913Z,-78